Sp Venture — C6DF3 — position and weather

sailwx.info

Track history (hours):
 
Tides and Currents Weather Stations Pressure Air Temp Water Temp Dewpoint Dewpoint Depression Visibility Wind Speed Wind Dir Waves Ship Positions

Sp Venture

Last reported at 2018-Aug-08 10:06 UTC. Time now 2018-Aug-20 16:18 UTC.
Position N 55°39' E 021°10'.
Warning: this ship's position is 12 days out of date.

Length 90 m; draft 6.4 m.

Type: Cargo ship. MMSI: 311000658.

Date/timePositionNaut miles runAvg speedWind from/ knotsBaromVisibWave heightAir tempDewpointWater temp
2018-Aug-08 10:06N 55°39' E 021°10'0 0.0
2018-Aug-08 09:59N 55°39' E 021°10'0 0.0
2018-Aug-08 09:30N 55°39' E 021°10'0 0.0
2018-Aug-08 09:00N 55°39' E 021°10'0 0.0
2018-Aug-08 08:30N 55°39' E 021°10'0 0.0
2018-Aug-08 07:59N 55°39' E 021°10'0 0.0
2018-Aug-08 07:30N 55°39' E 021°10'0 0.0
2018-Aug-08 07:00N 55°39' E 021°10'0 0.0
2018-Aug-08 06:29N 55°39' E 021°10'0 0.0
2018-Aug-08 05:59N 55°39' E 021°10'0 0.0
2018-Aug-08 05:27N 55°39' E 021°10'0 0.0
2018-Aug-08 01:52N 55°39' E 021°10'0 0.0
2018-Aug-08 01:30N 55°39' E 021°10'0 0.0
2018-Aug-08 00:59N 55°39' E 021°10'0 0.0
2018-Aug-08 00:29N 55°39' E 021°10'0 0.0
2018-Aug-07 20:00N 55°39' E 021°10'0 0.0
2018-Aug-07 19:30N 55°39' E 021°10'0 0.0
2018-Aug-07 19:00N 55°39' E 021°10'3 1.4
2018-Aug-07 16:34N 55°42' E 021°07'2 9.5
2018-Aug-07 16:23N 55°43' E 021°06'  
2018-Aug-05 10:18N 56°09' E 016°57'310.3
2018-Aug-05 10:00N 56°07' E 016°52'510.5
2018-Aug-05 09:30N 56°03' E 016°45'510.6
2018-Aug-05 09:00N 56°01' E 016°37'510.9
2018-Aug-05 08:30N 55°58' E 016°28'510.6
2018-Aug-05 08:00N 55°55' E 016°20'510.4
2018-Aug-05 07:30N 55°53' E 016°12'510.5
2018-Aug-05 07:00N 55°51' E 016°04'510.5
2018-Aug-05 06:30N 55°48' E 015°56'510.6
2018-Aug-05 06:00N 55°45' E 015°48'510.6
2018-Aug-05 05:30N 55°43' E 015°39'510.6
2018-Aug-05 05:00N 55°40' E 015°31'510.6
2018-Aug-05 04:30N 55°37' E 015°23'510.4
2018-Aug-05 04:00N 55°35' E 015°15'510.5
2018-Aug-05 03:30N 55°32' E 015°07'810.8
2018-Aug-05 02:49N 55°28' E 014°56'311.1
2018-Aug-05 02:30N 55°27' E 014°50'611.0
2018-Aug-05 01:58N 55°24' E 014°41'510.3
2018-Aug-05 01:30N 55°20' E 014°36'510.4
2018-Aug-05 01:00N 55°16' E 014°30'510.4
2018-Aug-05 00:30N 55°12' E 014°25'510.3
2018-Aug-05 00:00N 55°08' E 014°19'510.4
2018-Aug-04 23:30N 55°04' E 014°13'1210.1
2018-Aug-04 22:21N 54°58' E 013°56'5910.6
2018-Aug-04 16:45N 54°33' E 012°23'310.6
2018-Aug-04 16:30N 54°32' E 012°19'510.0
2018-Aug-04 16:00N 54°27' E 012°15'5 9.8
2018-Aug-04 15:30N 54°24' E 012°08'1310.4
2018-Aug-04 14:16N 54°25' E 011°46'310.9
2018-Aug-04 14:00N 54°26' E 011°42'510.8
2018-Aug-04 13:30N 54°28' E 011°34'510.6
2018-Aug-04 13:00N 54°31' E 011°25'510.5
2018-Aug-04 12:30N 54°33' E 011°17'510.2
2018-Aug-04 12:00N 54°35' E 011°09'510.5
2018-Aug-04 11:30N 54°35' E 010°60'510.1
2018-Aug-04 11:00N 54°34' E 010°51'510.0
2018-Aug-04 10:30N 54°34' E 010°43'5 9.9
2018-Aug-04 10:00N 54°33' E 010°34'28 6.8
2018-Aug-04 05:56N 54°22' E 009°51'3 7.7
2018-Aug-04 05:30N 54°21' E 009°46'3 6.3
2018-Aug-04 05:00N 54°18' E 009°42'4 7.4
2018-Aug-04 04:30N 54°16' E 009°38'4 7.6
2018-Aug-04 04:00N 54°13' E 009°34'4 8.4
2018-Aug-04 03:30N 54°11' E 009°28'4 8.5
2018-Aug-04 03:00N 54°09' E 009°21'4 8.8
2018-Aug-04 02:30N 54°05' E 009°19'5 9.1
2018-Aug-04 02:00N 54°00' E 009°18'5 9.1
2018-Aug-04 01:30N 53°56' E 009°13'4 7.8
2018-Aug-04 01:00N 53°54' E 009°09'0 0.2
2018-Aug-04 00:30N 53°54' E 009°09'3 6.2
2018-Aug-04 00:00N 53°52' E 009°04'4 8.8
2018-Aug-03 23:30N 53°51' E 008°57'5 9.0
2018-Aug-03 23:00N 53°50' E 008°49'4 8.7
2018-Aug-03 22:30N 53°53' E 008°43'5 9.0
2018-Aug-03 22:00N 53°56' E 008°39'5 9.2
2018-Aug-03 21:27N 53°58' E 008°31'5 9.4
2018-Aug-03 20:52N 53°59' E 008°22'610.8
2018-Aug-03 20:18N 53°60' E 008°11'410.8
2018-Aug-03 19:55N 53°58' E 008°05'511.3
2018-Aug-03 19:30N 53°56' E 007°58'4 8.3
2018-Aug-03 19:00N 53°52' E 007°54'713.3
2018-Aug-03 18:30N 53°50' E 008°05'714.3
2018-Aug-03 18:00N 53°45' E 008°13'713.7
2018-Aug-03 17:28N 53°40' E 008°23'612.1
2018-Aug-03 17:00N 53°37' E 008°30'510.8
2018-Aug-03 16:30N 53°32' E 008°34'5 9.4
2018-Aug-03 16:00N 53°28' E 008°30'5 9.9
2018-Aug-03 15:30N 53°23' E 008°30'5 9.5
2018-Aug-03 15:00N 53°18' E 008°30'5 9.4
2018-Aug-03 14:31N 53°14' E 008°29'4 8.8
2018-Aug-03 14:01N 53°11' E 008°34'4 7.8
2018-Aug-03 13:31N 53°08' E 008°39'2 4.7
2018-Aug-03 13:01N 53°07' E 008°43'0 0.0
2018-Aug-03 12:31N 53°07' E 008°43'0 0.4
2018-Aug-03 12:01N 53°07' E 008°43'0 0.2
2018-Aug-03 11:29N 53°07' E 008°43'0 0.0
2018-Aug-03 10:59N 53°07' E 008°43'0 0.0
2018-Aug-03 10:29N 53°07' E 008°43'0 0.0
2018-Aug-03 09:59N 53°07' E 008°43'0 0.0
2018-Aug-03 09:29N 53°07' E 008°43'0 0.0
2018-Aug-03 08:59N 53°07' E 008°43'0 0.0
2018-Aug-03 08:29N 53°07' E 008°43'0 0.0
2018-Aug-03 07:59N 53°07' E 008°43'0 0.0
2018-Aug-03 07:29N 53°07' E 008°43'0 0.0
2018-Aug-03 06:59N 53°07' E 008°43'0 0.0
2018-Aug-03 06:29N 53°07' E 008°43'0 0.0
2018-Aug-03 06:00N 53°07' E 008°43'0 0.0
2018-Aug-03 05:29N 53°07' E 008°43'0 0.0
2018-Aug-03 04:59N 53°07' E 008°43'0 0.0
2018-Aug-03 04:29N 53°07' E 008°43'0 0.0
2018-Aug-03 03:59N 53°07' E 008°43'0 0.0
2018-Aug-03 03:29N 53°07' E 008°43'0 0.0
2018-Aug-03 02:59N 53°07' E 008°43'0 0.0
2018-Aug-03 02:29N 53°07' E 008°43'0 0.0
2018-Aug-03 01:59N 53°07' E 008°43'0 0.0
2018-Aug-03 01:29N 53°07' E 008°43'0 0.0
2018-Aug-03 00:59N 53°07' E 008°43'0 0.0
2018-Aug-03 00:29N 53°07' E 008°43'0 0.0
2018-Aug-02 23:59N 53°07' E 008°43'0 0.0
2018-Aug-02 23:29N 53°07' E 008°43'0 0.0
2018-Aug-02 22:59N 53°07' E 008°43'0 0.0
2018-Aug-02 22:29N 53°07' E 008°43'0 0.0
2018-Aug-02 21:59N 53°07' E 008°43'0 0.0
2018-Aug-02 21:29N 53°07' E 008°43'0 0.0
2018-Aug-02 20:59N 53°07' E 008°43'0 0.0
2018-Aug-02 20:29N 53°07' E 008°43'0 0.4
2018-Aug-02 20:00N 53°07' E 008°43'0 0.4
2018-Aug-02 19:30N 53°07' E 008°43'1 2.5
2018-Aug-02 19:00N 53°07' E 008°41'3 6.4
2018-Aug-02 18:30N 53°10' E 008°37'4 7.4
2018-Aug-02 18:00N 53°11' E 008°32'4 8.9
2018-Aug-02 17:30N 53°16' E 008°29'5 9.7
2018-Aug-02 17:00N 53°20' E 008°30'510.7
2018-Aug-02 16:30N 53°26' E 008°29'510.5
2018-Aug-02 16:00N 53°31' E 008°32'1 0.9
2018-Aug-02 15:28N 53°31' E 008°33'0 0.1
2018-Aug-02 14:19N 53°31' E 008°33'0 0.1
2018-Aug-02 13:58N 53°31' E 008°33'0 0.0
2018-Aug-02 13:28N 53°31' E 008°33'0 0.0
2018-Aug-02 12:58N 53°31' E 008°33'0 0.0
2018-Aug-02 12:28N 53°31' E 008°33'0 0.1
2018-Aug-02 11:58N 53°31' E 008°33'0 0.1
2018-Aug-02 11:25N 53°31' E 008°33'0 0.2
2018-Aug-02 10:58N 53°31' E 008°33'0 0.2
2018-Aug-02 10:28N 53°31' E 008°33'0 0.1
2018-Aug-02 09:58N 53°31' E 008°33'0 0.0
2018-Aug-02 09:28N 53°31' E 008°33'0 0.1
2018-Aug-02 08:58N 53°31' E 008°33'0 0.0
2018-Aug-02 08:28N 53°31' E 008°33'0 0.1
2018-Aug-02 07:58N 53°31' E 008°33'0 0.1
2018-Aug-02 07:31N 53°31' E 008°33'0 0.0
2018-Aug-02 07:00N 53°31' E 008°33'0 0.0
2018-Aug-02 06:27N 53°31' E 008°33'0 0.1
2018-Aug-02 06:00N 53°31' E 008°33'0 0.1
2018-Aug-02 05:30N 53°31' E 008°33'0 0.0
2018-Aug-02 05:00N 53°31' E 008°33'0 0.2
2018-Aug-02 04:30N 53°31' E 008°33'0 0.1
2018-Aug-02 04:00N 53°31' E 008°33'0 0.0
2018-Aug-02 03:30N 53°31' E 008°33'0 0.0
2018-Aug-02 03:00N 53°31' E 008°33'0 0.0
2018-Aug-02 02:30N 53°31' E 008°33'0 0.0
2018-Aug-02 01:57N 53°31' E 008°33'0 0.0
2018-Aug-02 01:30N 53°31' E 008°33'0 0.1
2018-Aug-02 01:00N 53°31' E 008°33'2 4.1
2018-Aug-02 00:30N 53°33' E 008°33'510.5
2018-Aug-02 00:00N 53°37' E 008°28'713.4
2018-Aug-01 23:30N 53°42' E 008°20'713.4
2018-Aug-01 23:00N 53°46' E 008°11'712.9
2018-Aug-01 22:30N 53°50' E 008°03'612.5
2018-Aug-01 22:00N 53°52' E 007°52'510.4
2018-Aug-01 21:30N 53°53' E 007°44'510.8
2018-Aug-01 21:00N 53°54' E 007°35'610.1
2018-Aug-01 20:27N 53°53' E 007°25'4 9.7
2018-Aug-01 20:00N 53°52' E 007°18'5 9.5
2018-Aug-01 19:29N 53°51' E 007°10'6 9.3
2018-Aug-01 18:49N 53°49' E 006°60'3 9.0
2018-Aug-01 18:30N 53°49' E 006°55'5 9.1
2018-Aug-01 17:57N 53°48' E 006°47'59 9.7
2018-Aug-01 11:50N 53°31' E 005°11'3410.8
2018-Aug-01 08:43N 53°08' E 004°30'412.1
2018-Aug-01 08:22N 53°04' E 004°27'911.7
2018-Aug-01 07:36N 52°56' E 004°20'211.7
2018-Aug-01 07:28N 52°55' E 004°19'2212.2
2018-Aug-01 05:42N 52°38' E 003°57'212.0
2018-Aug-01 05:30N 52°36' E 003°54'612.1
2018-Aug-01 04:59N 52°32' E 003°47'612.1
2018-Aug-01 04:30N 52°28' E 003°40'612.0
2018-Aug-01 04:00N 52°23' E 003°33'611.9
2018-Aug-01 03:30N 52°19' E 003°26'611.6
2018-Aug-01 03:00N 52°15' E 003°19'2110.7
2018-Aug-01 01:05N 51°60' E 002°57'4 9.6
2018-Aug-01 00:38N 51°56' E 002°53'22 9.1
2018-Jul-31 22:10N 51°39' E 002°30'1 9.0
2018-Jul-31 22:00N 51°38' E 002°28'5 9.0
2018-Jul-31 21:30N 51°34' E 002°24'5 9.3
2018-Jul-31 21:00N 51°31' E 002°19'5 9.6
2018-Jul-31 20:30N 51°27' E 002°15'5 9.9
2018-Jul-31 20:00N 51°22' E 002°11'510.2
2018-Jul-31 19:30N 51°18' E 002°06'510.6
2018-Jul-31 19:00N 51°14' E 002°02'510.7
2018-Jul-31 18:30N 51°10' E 001°55'510.8
2018-Jul-31 18:00N 51°07' E 001°49'3 6.3
2018-Jul-31 17:30N 51°04' E 001°48'5 9.7
2018-Jul-31 17:00N 51°03' E 001°55'5 9.5
2018-Jul-31 16:30N 51°03' E 002°03'5 9.2
2018-Jul-31 16:00N 51°03' E 002°10'4 9.0
2018-Jul-31 15:30N 51°04' E 002°17'3 5.3
2018-Jul-31 15:00N 51°03' E 002°21'1 1.0
2018-Jul-31 14:30N 51°03' E 002°21'3 5.9
2018-Jul-31 14:00N 51°02' E 002°16'0 0.0
2018-Jul-31 13:27N 51°02' E 002°16'0 0.0
2018-Jul-31 13:00N 51°02' E 002°16'0 0.0
2018-Jul-31 04:48N 51°02' E 002°16'0 0.0
2018-Jul-31 04:30N 51°02' E 002°16'0 0.0
2018-Jul-31 04:00N 51°02' E 002°16'0 0.0
2018-Jul-31 03:30N 51°02' E 002°16'0 0.0
2018-Jul-31 03:00N 51°02' E 002°16'0 0.0
2018-Jul-31 02:30N 51°02' E 002°16'0 0.0
2018-Jul-31 01:56N 51°02' E 002°16'0 0.0
2018-Jul-31 01:23N 51°02' E 002°16'0 0.0
2018-Jul-31 00:59N 51°02' E 002°16'0 0.0
2018-Jul-31 00:29N 51°02' E 002°16'0 0.0
2018-Jul-30 23:59N 51°02' E 002°16'0 0.0
2018-Jul-30 23:29N 51°02' E 002°16'0 0.0
2018-Jul-30 22:59N 51°02' E 002°16'0 0.0
2018-Jul-30 22:29N 51°02' E 002°16'0 0.0
2018-Jul-30 21:53N 51°02' E 002°16'0 0.0
2018-Jul-30 21:26N 51°02' E 002°16'0 0.0
2018-Jul-30 20:59N 51°02' E 002°16'0 0.0
2018-Jul-30 20:23N 51°02' E 002°16'0 0.0
2018-Jul-30 19:56N 51°02' E 002°16'0 0.0
2018-Jul-30 19:29N 51°02' E 002°16'0 0.0
2018-Jul-30 18:59N 51°02' E 002°16'0 0.0
2018-Jul-30 18:29N 51°02' E 002°16'0 0.0
2018-Jul-30 17:59N 51°02' E 002°16'0 0.0
2018-Jul-30 17:29N 51°02' E 002°16'0 0.0
2018-Jul-30 16:38N 51°02' E 002°16'0 0.0
2018-Jul-30 16:29N 51°02' E 002°16'0 0.0
2018-Jul-30 15:59N 51°02' E 002°16'0 0.0
2018-Jul-30 15:20N 51°02' E 002°16'0 0.0
2018-Jul-30 14:59N 51°02' E 002°16'0 0.0
2018-Jul-30 13:35N 51°02' E 002°16'0 0.2
2018-Jul-30 13:23N 51°02' E 002°16'0 0.0
2018-Jul-30 12:53N 51°02' E 002°16'0 0.0
2018-Jul-30 01:08N 51°02' E 002°16'0 0.0
2018-Jul-30 00:38N 51°02' E 002°16'0 0.0
2018-Jul-30 00:14N 51°02' E 002°16'0 0.0
2018-Jul-29 23:41N 51°02' E 002°16'0 0.0
2018-Jul-29 22:29N 51°02' E 002°16'0 0.0
2018-Jul-29 20:47N 51°02' E 002°16'0 0.0
2018-Jul-29 20:21N 51°02' E 002°16'0 0.0
2018-Jul-29 19:11N 51°02' E 002°16'0 0.0
2018-Jul-29 17:17N 51°02' E 002°16'0 0.0
2018-Jul-29 16:32N 51°02' E 002°16'0 0.0
2018-Jul-29 16:23N 51°02' E 002°16'0 0.0
2018-Jul-29 11:07N 51°02' E 002°16'0 0.0
2018-Jul-29 10:55N 51°02' E 002°16'0 0.0
2018-Jul-29 10:13N 51°02' E 002°16'  
Track history (hours):
 
Tides and Currents Weather Stations Pressure Air Temp Water Temp Dewpoint Dewpoint Depression Visibility Wind Speed Wind Dir Waves Ship Positions

Sp Venture

Last reported at 2018-Aug-08 10:06 UTC. Time now 2018-Aug-20 16:18 UTC.
Position N 55°39' E 021°10'.
Warning: this ship's position is 12 days out of date.

Length 90 m; draft 6.4 m.

Type: Cargo ship. MMSI: 311000658.

Date/timePositionNaut miles runAvg speedWind from/ knotsBaromVisibWave heightAir tempDewpointWater temp
2018-Aug-08 10:06N 55°39' E 021°10'0 0.0
2018-Aug-08 09:59N 55°39' E 021°10'0 0.0
2018-Aug-08 09:30N 55°39' E 021°10'0 0.0
2018-Aug-08 09:00N 55°39' E 021°10'0 0.0
2018-Aug-08 08:30N 55°39' E 021°10'0 0.0
2018-Aug-08 07:59N 55°39' E 021°10'0 0.0
2018-Aug-08 07:30N 55°39' E 021°10'0 0.0
2018-Aug-08 07:00N 55°39' E 021°10'0 0.0
2018-Aug-08 06:29N 55°39' E 021°10'0 0.0
2018-Aug-08 05:59N 55°39' E 021°10'0 0.0
2018-Aug-08 05:27N 55°39' E 021°10'0 0.0
2018-Aug-08 01:52N 55°39' E 021°10'0 0.0
2018-Aug-08 01:30N 55°39' E 021°10'0 0.0
2018-Aug-08 00:59N 55°39' E 021°10'0 0.0
2018-Aug-08 00:29N 55°39' E 021°10'0 0.0
2018-Aug-07 20:00N 55°39' E 021°10'0 0.0
2018-Aug-07 19:30N 55°39' E 021°10'0 0.0
2018-Aug-07 19:00N 55°39' E 021°10'3 1.4
2018-Aug-07 16:34N 55°42' E 021°07'2 9.5
2018-Aug-07 16:23N 55°43' E 021°06'  
2018-Aug-05 10:18N 56°09' E 016°57'310.3
2018-Aug-05 10:00N 56°07' E 016°52'510.5
2018-Aug-05 09:30N 56°03' E 016°45'510.6
2018-Aug-05 09:00N 56°01' E 016°37'510.9
2018-Aug-05 08:30N 55°58' E 016°28'510.6
2018-Aug-05 08:00N 55°55' E 016°20'510.4
2018-Aug-05 07:30N 55°53' E 016°12'510.5
2018-Aug-05 07:00N 55°51' E 016°04'510.5
2018-Aug-05 06:30N 55°48' E 015°56'510.6
2018-Aug-05 06:00N 55°45' E 015°48'510.6
2018-Aug-05 05:30N 55°43' E 015°39'510.6
2018-Aug-05 05:00N 55°40' E 015°31'510.6
2018-Aug-05 04:30N 55°37' E 015°23'510.4
2018-Aug-05 04:00N 55°35' E 015°15'510.5
2018-Aug-05 03:30N 55°32' E 015°07'810.8
2018-Aug-05 02:49N 55°28' E 014°56'311.1
2018-Aug-05 02:30N 55°27' E 014°50'611.0
2018-Aug-05 01:58N 55°24' E 014°41'510.3
2018-Aug-05 01:30N 55°20' E 014°36'510.4
2018-Aug-05 01:00N 55°16' E 014°30'510.4
2018-Aug-05 00:30N 55°12' E 014°25'510.3
2018-Aug-05 00:00N 55°08' E 014°19'510.4
2018-Aug-04 23:30N 55°04' E 014°13'1210.1
2018-Aug-04 22:21N 54°58' E 013°56'5910.6
2018-Aug-04 16:45N 54°33' E 012°23'310.6
2018-Aug-04 16:30N 54°32' E 012°19'510.0
2018-Aug-04 16:00N 54°27' E 012°15'5 9.8
2018-Aug-04 15:30N 54°24' E 012°08'1310.4
2018-Aug-04 14:16N 54°25' E 011°46'310.9
2018-Aug-04 14:00N 54°26' E 011°42'510.8
2018-Aug-04 13:30N 54°28' E 011°34'510.6
2018-Aug-04 13:00N 54°31' E 011°25'510.5
2018-Aug-04 12:30N 54°33' E 011°17'510.2
2018-Aug-04 12:00N 54°35' E 011°09'510.5
2018-Aug-04 11:30N 54°35' E 010°60'510.1
2018-Aug-04 11:00N 54°34' E 010°51'510.0
2018-Aug-04 10:30N 54°34' E 010°43'5 9.9
2018-Aug-04 10:00N 54°33' E 010°34'28 6.8
2018-Aug-04 05:56N 54°22' E 009°51'3 7.7
2018-Aug-04 05:30N 54°21' E 009°46'3 6.3
2018-Aug-04 05:00N 54°18' E 009°42'4 7.4
2018-Aug-04 04:30N 54°16' E 009°38'4 7.6
2018-Aug-04 04:00N 54°13' E 009°34'4 8.4
2018-Aug-04 03:30N 54°11' E 009°28'4 8.5
2018-Aug-04 03:00N 54°09' E 009°21'4 8.8
2018-Aug-04 02:30N 54°05' E 009°19'5 9.1
2018-Aug-04 02:00N 54°00' E 009°18'5 9.1
2018-Aug-04 01:30N 53°56' E 009°13'4 7.8
2018-Aug-04 01:00N 53°54' E 009°09'0 0.2
2018-Aug-04 00:30N 53°54' E 009°09'3 6.2
2018-Aug-04 00:00N 53°52' E 009°04'4 8.8
2018-Aug-03 23:30N 53°51' E 008°57'5 9.0
2018-Aug-03 23:00N 53°50' E 008°49'4 8.7
2018-Aug-03 22:30N 53°53' E 008°43'5 9.0
2018-Aug-03 22:00N 53°56' E 008°39'5 9.2
2018-Aug-03 21:27N 53°58' E 008°31'5 9.4
2018-Aug-03 20:52N 53°59' E 008°22'610.8
2018-Aug-03 20:18N 53°60' E 008°11'410.8
2018-Aug-03 19:55N 53°58' E 008°05'511.3
2018-Aug-03 19:30N 53°56' E 007°58'4 8.3
2018-Aug-03 19:00N 53°52' E 007°54'713.3
2018-Aug-03 18:30N 53°50' E 008°05'714.3
2018-Aug-03 18:00N 53°45' E 008°13'713.7
2018-Aug-03 17:28N 53°40' E 008°23'612.1
2018-Aug-03 17:00N 53°37' E 008°30'510.8
2018-Aug-03 16:30N 53°32' E 008°34'5 9.4
2018-Aug-03 16:00N 53°28' E 008°30'5 9.9
2018-Aug-03 15:30N 53°23' E 008°30'5 9.5
2018-Aug-03 15:00N 53°18' E 008°30'5 9.4
2018-Aug-03 14:31N 53°14' E 008°29'4 8.8
2018-Aug-03 14:01N 53°11' E 008°34'4 7.8
2018-Aug-03 13:31N 53°08' E 008°39'2 4.7
2018-Aug-03 13:01N 53°07' E 008°43'0 0.0
2018-Aug-03 12:31N 53°07' E 008°43'0 0.4
2018-Aug-03 12:01N 53°07' E 008°43'0 0.2
2018-Aug-03 11:29N 53°07' E 008°43'0 0.0
2018-Aug-03 10:59N 53°07' E 008°43'0 0.0
2018-Aug-03 10:29N 53°07' E 008°43'0 0.0
2018-Aug-03 09:59N 53°07' E 008°43'0 0.0
2018-Aug-03 09:29N 53°07' E 008°43'0 0.0
2018-Aug-03 08:59N 53°07' E 008°43'0 0.0
2018-Aug-03 08:29N 53°07' E 008°43'0 0.0
2018-Aug-03 07:59N 53°07' E 008°43'0 0.0
2018-Aug-03 07:29N 53°07' E 008°43'0 0.0
2018-Aug-03 06:59N 53°07' E 008°43'0 0.0
2018-Aug-03 06:29N 53°07' E 008°43'0 0.0
2018-Aug-03 06:00N 53°07' E 008°43'0 0.0
2018-Aug-03 05:29N 53°07' E 008°43'0 0.0
2018-Aug-03 04:59N 53°07' E 008°43'0 0.0
2018-Aug-03 04:29N 53°07' E 008°43'0 0.0
2018-Aug-03 03:59N 53°07' E 008°43'0 0.0
2018-Aug-03 03:29N 53°07' E 008°43'0 0.0
2018-Aug-03 02:59N 53°07' E 008°43'0 0.0
2018-Aug-03 02:29N 53°07' E 008°43'0 0.0
2018-Aug-03 01:59N 53°07' E 008°43'0 0.0
2018-Aug-03 01:29N 53°07' E 008°43'0 0.0
2018-Aug-03 00:59N 53°07' E 008°43'0 0.0
2018-Aug-03 00:29N 53°07' E 008°43'0 0.0
2018-Aug-02 23:59N 53°07' E 008°43'0 0.0
2018-Aug-02 23:29N 53°07' E 008°43'0 0.0
2018-Aug-02 22:59N 53°07' E 008°43'0 0.0
2018-Aug-02 22:29N 53°07' E 008°43'0 0.0
2018-Aug-02 21:59N 53°07' E 008°43'0 0.0
2018-Aug-02 21:29N 53°07' E 008°43'0 0.0
2018-Aug-02 20:59N 53°07' E 008°43'0 0.0
2018-Aug-02 20:29N 53°07' E 008°43'0 0.4
2018-Aug-02 20:00N 53°07' E 008°43'0 0.4
2018-Aug-02 19:30N 53°07' E 008°43'1 2.5
2018-Aug-02 19:00N 53°07' E 008°41'3 6.4
2018-Aug-02 18:30N 53°10' E 008°37'4 7.4
2018-Aug-02 18:00N 53°11' E 008°32'4 8.9
2018-Aug-02 17:30N 53°16' E 008°29'5 9.7
2018-Aug-02 17:00N 53°20' E 008°30'510.7
2018-Aug-02 16:30N 53°26' E 008°29'510.5
2018-Aug-02 16:00N 53°31' E 008°32'1 0.9
2018-Aug-02 15:28N 53°31' E 008°33'0 0.1
2018-Aug-02 14:19N 53°31' E 008°33'0 0.1
2018-Aug-02 13:58N 53°31' E 008°33'0 0.0
2018-Aug-02 13:28N 53°31' E 008°33'0 0.0
2018-Aug-02 12:58N 53°31' E 008°33'0 0.0
2018-Aug-02 12:28N 53°31' E 008°33'0 0.1
2018-Aug-02 11:58N 53°31' E 008°33'0 0.1
2018-Aug-02 11:25N 53°31' E 008°33'0 0.2
2018-Aug-02 10:58N 53°31' E 008°33'0 0.2
2018-Aug-02 10:28N 53°31' E 008°33'0 0.1
2018-Aug-02 09:58N 53°31' E 008°33'0 0.0
2018-Aug-02 09:28N 53°31' E 008°33'0 0.1
2018-Aug-02 08:58N 53°31' E 008°33'0 0.0
2018-Aug-02 08:28N 53°31' E 008°33'0 0.1
2018-Aug-02 07:58N 53°31' E 008°33'0 0.1
2018-Aug-02 07:31N 53°31' E 008°33'0 0.0
2018-Aug-02 07:00N 53°31' E 008°33'0 0.0
2018-Aug-02 06:27N 53°31' E 008°33'0 0.1
2018-Aug-02 06:00N 53°31' E 008°33'0 0.1
2018-Aug-02 05:30N 53°31' E 008°33'0 0.0
2018-Aug-02 05:00N 53°31' E 008°33'0 0.2
2018-Aug-02 04:30N 53°31' E 008°33'0 0.1
2018-Aug-02 04:00N 53°31' E 008°33'0 0.0
2018-Aug-02 03:30N 53°31' E 008°33'0 0.0
2018-Aug-02 03:00N 53°31' E 008°33'0 0.0
2018-Aug-02 02:30N 53°31' E 008°33'0 0.0
2018-Aug-02 01:57N 53°31' E 008°33'0 0.0
2018-Aug-02 01:30N 53°31' E 008°33'0 0.1
2018-Aug-02 01:00N 53°31' E 008°33'2 4.1
2018-Aug-02 00:30N 53°33' E 008°33'510.5
2018-Aug-02 00:00N 53°37' E 008°28'713.4
2018-Aug-01 23:30N 53°42' E 008°20'713.4
2018-Aug-01 23:00N 53°46' E 008°11'712.9
2018-Aug-01 22:30N 53°50' E 008°03'612.5
2018-Aug-01 22:00N 53°52' E 007°52'510.4
2018-Aug-01 21:30N 53°53' E 007°44'510.8
2018-Aug-01 21:00N 53°54' E 007°35'610.1
2018-Aug-01 20:27N 53°53' E 007°25'4 9.7
2018-Aug-01 20:00N 53°52' E 007°18'5 9.5
2018-Aug-01 19:29N 53°51' E 007°10'6 9.3
2018-Aug-01 18:49N 53°49' E 006°60'3 9.0
2018-Aug-01 18:30N 53°49' E 006°55'5 9.1
2018-Aug-01 17:57N 53°48' E 006°47'59 9.7
2018-Aug-01 11:50N 53°31' E 005°11'3410.8
2018-Aug-01 08:43N 53°08' E 004°30'412.1
2018-Aug-01 08:22N 53°04' E 004°27'911.7
2018-Aug-01 07:36N 52°56' E 004°20'211.7
2018-Aug-01 07:28N 52°55' E 004°19'2212.2
2018-Aug-01 05:42N 52°38' E 003°57'212.0
2018-Aug-01 05:30N 52°36' E 003°54'612.1
2018-Aug-01 04:59N 52°32' E 003°47'612.1
2018-Aug-01 04:30N 52°28' E 003°40'612.0
2018-Aug-01 04:00N 52°23' E 003°33'611.9
2018-Aug-01 03:30N 52°19' E 003°26'611.6
2018-Aug-01 03:00N 52°15' E 003°19'2110.7
2018-Aug-01 01:05N 51°60' E 002°57'4 9.6
2018-Aug-01 00:38N 51°56' E 002°53'22 9.1
2018-Jul-31 22:10N 51°39' E 002°30'1 9.0
2018-Jul-31 22:00N 51°38' E 002°28'5 9.0
2018-Jul-31 21:30N 51°34' E 002°24'5 9.3
2018-Jul-31 21:00N 51°31' E 002°19'5 9.6
2018-Jul-31 20:30N 51°27' E 002°15'5 9.9
2018-Jul-31 20:00N 51°22' E 002°11'510.2
2018-Jul-31 19:30N 51°18' E 002°06'510.6
2018-Jul-31 19:00N 51°14' E 002°02'510.7
2018-Jul-31 18:30N 51°10' E 001°55'510.8
2018-Jul-31 18:00N 51°07' E 001°49'3 6.3
2018-Jul-31 17:30N 51°04' E 001°48'5 9.7
2018-Jul-31 17:00N 51°03' E 001°55'5 9.5
2018-Jul-31 16:30N 51°03' E 002°03'5 9.2
2018-Jul-31 16:00N 51°03' E 002°10'4 9.0
2018-Jul-31 15:30N 51°04' E 002°17'3 5.3
2018-Jul-31 15:00N 51°03' E 002°21'1 1.0
2018-Jul-31 14:30N 51°03' E 002°21'3 5.9
2018-Jul-31 14:00N 51°02' E 002°16'0 0.0
2018-Jul-31 13:27N 51°02' E 002°16'0 0.0
2018-Jul-31 13:00N 51°02' E 002°16'0 0.0
2018-Jul-31 04:48N 51°02' E 002°16'0 0.0
2018-Jul-31 04:30N 51°02' E 002°16'0 0.0
2018-Jul-31 04:00N 51°02' E 002°16'0 0.0
2018-Jul-31 03:30N 51°02' E 002°16'0 0.0
2018-Jul-31 03:00N 51°02' E 002°16'0 0.0
2018-Jul-31 02:30N 51°02' E 002°16'0 0.0
2018-Jul-31 01:56N 51°02' E 002°16'0 0.0
2018-Jul-31 01:23N 51°02' E 002°16'0 0.0
2018-Jul-31 00:59N 51°02' E 002°16'0 0.0
2018-Jul-31 00:29N 51°02' E 002°16'0 0.0
2018-Jul-30 23:59N 51°02' E 002°16'0 0.0
2018-Jul-30 23:29N 51°02' E 002°16'0 0.0
2018-Jul-30 22:59N 51°02' E 002°16'0 0.0
2018-Jul-30 22:29N 51°02' E 002°16'0 0.0
2018-Jul-30 21:53N 51°02' E 002°16'0 0.0
2018-Jul-30 21:26N 51°02' E 002°16'0 0.0
2018-Jul-30 20:59N 51°02' E 002°16'0 0.0
2018-Jul-30 20:23N 51°02' E 002°16'0 0.0
2018-Jul-30 19:56N 51°02' E 002°16'0 0.0
2018-Jul-30 19:29N 51°02' E 002°16'0 0.0
2018-Jul-30 18:59N 51°02' E 002°16'0 0.0
2018-Jul-30 18:29N 51°02' E 002°16'0 0.0
2018-Jul-30 17:59N 51°02' E 002°16'0 0.0
2018-Jul-30 17:29N 51°02' E 002°16'0 0.0
2018-Jul-30 16:38N 51°02' E 002°16'0 0.0
2018-Jul-30 16:29N 51°02' E 002°16'0 0.0
2018-Jul-30 15:59N 51°02' E 002°16'0 0.0
2018-Jul-30 15:20N 51°02' E 002°16'0 0.0
2018-Jul-30 14:59N 51°02' E 002°16'0 0.0
2018-Jul-30 13:35N 51°02' E 002°16'0 0.2
2018-Jul-30 13:23N 51°02' E 002°16'0 0.0
2018-Jul-30 12:53N 51°02' E 002°16'0 0.0
2018-Jul-30 01:08N 51°02' E 002°16'0 0.0
2018-Jul-30 00:38N 51°02' E 002°16'0 0.0
2018-Jul-30 00:14N 51°02' E 002°16'0 0.0
2018-Jul-29 23:41N 51°02' E 002°16'0 0.0
2018-Jul-29 22:29N 51°02' E 002°16'0 0.0
2018-Jul-29 20:47N 51°02' E 002°16'0 0.0
2018-Jul-29 20:21N 51°02' E 002°16'0 0.0
2018-Jul-29 19:11N 51°02' E 002°16'0 0.0
2018-Jul-29 17:17N 51°02' E 002°16'0 0.0
2018-Jul-29 16:32N 51°02' E 002°16'0 0.0
2018-Jul-29 16:23N 51°02' E 002°16'0 0.0
2018-Jul-29 11:07N 51°02' E 002°16'0 0.0
2018-Jul-29 10:55N 51°02' E 002°16'0 0.0
2018-Jul-29 10:13N 51°02' E 002°16'  

Dump ship's entire track history